createdAt,value
2023-05-16T00:00:41.526Z,16.45
2023-05-16T00:03:08.465Z,10.20
2023-05-16T00:05:36.208Z,14.63
2023-05-16T00:08:02.918Z,13.98
2023-05-16T00:10:29.682Z,13.88
2023-05-16T00:12:57.528Z,12.27
2023-05-16T00:15:24.982Z,15.75
2023-05-16T00:17:52.019Z,13.57
2023-05-16T00:20:23.119Z,9.45
2023-05-16T00:22:49.993Z,17.15
2023-05-16T00:25:16.780Z,12.50
2023-05-16T00:27:43.572Z,14.80
2023-05-16T00:30:10.819Z,12.68
2023-05-16T00:32:37.785Z,17.02
2023-05-16T00:35:05.021Z,17.00
2023-05-16T00:37:31.737Z,15.27
2023-05-16T00:39:58.488Z,14.13
2023-05-16T00:42:25.283Z,17.58
2023-05-16T00:44:52.083Z,15.40
2023-05-16T00:47:18.763Z,14.80
2023-05-16T00:49:45.544Z,10.57
2023-05-16T00:52:12.277Z,12.65
2023-05-16T00:54:39.012Z,12.13
2023-05-16T00:57:06.896Z,9.93
2023-05-16T00:59:33.989Z,9.73
2023-05-16T01:02:01.415Z,10.40
2023-05-16T01:04:28.966Z,14.80
2023-05-16T01:06:57.099Z,12.52
2023-05-16T01:09:24.073Z,11.23
2023-05-16T01:11:58.718Z,6.65
2023-05-16T01:14:38.673Z,9.70
2023-05-16T01:17:23.547Z,16.98
2023-05-16T01:19:59.781Z,11.32
2023-05-16T01:22:35.217Z,13.25
2023-05-16T01:25:27.075Z,11.35
2023-05-16T01:27:55.083Z,15.27
2023-05-16T01:30:21.998Z,11.50
2023-05-16T01:32:48.865Z,12.38
2023-05-16T01:35:17.323Z,11.38
2023-05-16T01:38:04.403Z,10.95
2023-05-16T01:40:35.909Z,12.55
2023-05-16T01:43:08.144Z,10.02
2023-05-16T01:45:38.791Z,14.10
2023-05-16T01:48:10.743Z,16.95
2023-05-16T01:50:44.142Z,12.57
2023-05-16T01:53:19.182Z,12.98
2023-05-16T01:55:47.822Z,11.68
2023-05-16T01:58:16.477Z,13.23
2023-05-16T02:00:43.665Z,12.05
2023-05-16T02:03:10.484Z,13.95
2023-05-16T02:05:37.378Z,17.10
2023-05-16T02:08:05.092Z,12.10
2023-05-16T02:10:32.017Z,8.60
2023-05-16T02:12:58.722Z,14.13
2023-05-16T02:15:25.551Z,13.98
2023-05-16T02:17:52.572Z,9.95
2023-05-16T02:20:19.398Z,13.10
2023-05-16T02:22:47.519Z,14.70
2023-05-16T02:25:16.095Z,13.35
2023-05-16T02:27:43.367Z,15.00
2023-05-16T02:30:12.187Z,16.02
2023-05-16T02:32:44.958Z,14.80
2023-05-16T02:35:12.229Z,9.48
2023-05-16T02:37:41.050Z,10.30
2023-05-16T02:40:09.109Z,9.98
2023-05-16T02:42:35.861Z,15.68
2023-05-16T02:45:02.646Z,11.48
2023-05-16T02:47:29.541Z,11.20
2023-05-16T02:49:56.383Z,10.70
2023-05-16T02:52:23.079Z,12.32
2023-05-16T02:55:09.377Z,12.63
2023-05-16T02:57:36.531Z,10.32
2023-05-16T03:00:05.964Z,10.25
2023-05-16T03:02:32.891Z,16.10
2023-05-16T03:04:59.689Z,15.35
2023-05-16T03:07:26.441Z,15.07
2023-05-16T03:09:53.184Z,9.00
2023-05-16T03:12:19.857Z,13.23
2023-05-16T03:14:46.576Z,12.38
2023-05-16T03:17:13.284Z,10.15
2023-05-16T03:19:40.013Z,16.33
2023-05-16T03:22:06.757Z,10.48
2023-05-16T03:24:33.551Z,15.43
2023-05-16T03:27:00.609Z,11.13
2023-05-16T03:29:27.402Z,12.20
2023-05-16T03:31:54.560Z,10.75
2023-05-16T03:34:21.372Z,7.53
2023-05-16T03:36:49.547Z,11.82
2023-05-16T03:39:19.360Z,13.88
2023-05-16T03:41:46.146Z,13.43
2023-05-16T03:44:12.918Z,12.15
2023-05-16T03:46:39.773Z,12.48
2023-05-16T03:49:06.584Z,13.45
2023-05-16T03:51:33.380Z,12.60
2023-05-16T03:54:00.137Z,13.23
2023-05-16T03:56:27.195Z,11.40
2023-05-16T03:58:53.938Z,14.45
2023-05-16T04:01:20.679Z,10.52
2023-05-16T04:03:47.418Z,11.05
2023-05-16T04:06:14.197Z,12.02
2023-05-16T04:08:41.155Z,10.10
2023-05-16T04:11:07.917Z,9.75
2023-05-16T04:13:34.704Z,9.93
2023-05-16T04:16:01.459Z,9.55
2023-05-16T04:18:28.232Z,8.63
2023-05-16T04:20:54.959Z,10.13
2023-05-16T04:23:21.660Z,11.65
2023-05-16T04:25:48.430Z,10.23
2023-05-16T04:28:15.646Z,11.77
2023-05-16T04:30:42.708Z,12.07
2023-05-16T04:33:09.590Z,13.35
2023-05-16T04:35:37.769Z,14.63
2023-05-16T04:38:04.787Z,13.35
2023-05-16T04:40:31.543Z,12.57
2023-05-16T04:42:58.356Z,17.23
2023-05-16T04:45:25.303Z,11.68
2023-05-16T04:47:52.322Z,10.73
2023-05-16T04:50:19.083Z,11.43
2023-05-16T04:52:45.798Z,7.65
2023-05-16T04:55:12.593Z,8.18
2023-05-16T04:57:39.462Z,9.45
2023-05-16T05:00:12.016Z,9.68
2023-05-16T05:02:39.510Z,10.32
2023-05-16T05:05:06.998Z,8.93
2023-05-16T05:07:34.060Z,11.55
2023-05-16T05:10:00.820Z,10.73
2023-05-16T05:12:28.081Z,15.02
2023-05-16T05:14:55.253Z,10.07
2023-05-16T05:17:23.577Z,11.77
2023-05-16T05:19:50.556Z,8.45
2023-05-16T05:22:17.486Z,11.02
2023-05-16T05:24:44.235Z,10.98
2023-05-16T05:27:11.022Z,12.13
2023-05-16T05:29:37.881Z,9.68
2023-05-16T05:32:05.629Z,10.35
2023-05-16T05:34:33.311Z,12.43
2023-05-16T05:37:00.171Z,9.57
2023-05-16T05:39:26.966Z,9.02
2023-05-16T05:41:53.744Z,10.10
2023-05-16T05:44:20.685Z,10.65
2023-05-16T05:46:47.585Z,10.38
2023-05-16T05:49:14.453Z,12.80
2023-05-16T05:51:41.466Z,11.70
2023-05-16T05:54:08.492Z,12.40
2023-05-16T05:56:35.759Z,5.43
2023-05-16T05:59:02.519Z,9.57
2023-05-16T06:01:30.010Z,7.25
2023-05-16T06:03:58.194Z,11.05
2023-05-16T06:06:25.566Z,9.60
2023-05-16T06:08:52.312Z,10.70
2023-05-16T06:11:19.039Z,9.10
2023-05-16T06:13:45.798Z,10.50
2023-05-16T06:16:12.566Z,14.00
2023-05-16T06:18:39.515Z,9.23
2023-05-16T06:21:07.022Z,7.38
2023-05-16T06:23:34.014Z,10.98
2023-05-16T06:26:00.764Z,10.07
2023-05-16T06:28:27.522Z,9.07
2023-05-16T06:30:54.395Z,9.15
2023-05-16T06:33:21.556Z,5.97
2023-05-16T06:35:48.788Z,8.85
2023-05-16T06:38:16.244Z,9.70
2023-05-16T06:40:42.997Z,10.13
2023-05-16T06:43:09.856Z,9.55
2023-05-16T06:45:36.882Z,9.73
2023-05-16T06:48:04.831Z,4.80
2023-05-16T06:50:31.646Z,8.30
2023-05-16T06:52:58.540Z,12.55
2023-05-16T06:55:25.553Z,10.48
2023-05-16T06:57:52.440Z,5.15
2023-05-16T07:00:19.723Z,9.95
2023-05-16T07:02:46.661Z,8.43
2023-05-16T07:05:13.590Z,6.85
2023-05-16T07:07:40.374Z,8.05
2023-05-16T07:10:07.625Z,5.60
2023-05-16T07:12:37.518Z,8.80
2023-05-16T07:15:04.841Z,9.60
2023-05-16T07:17:31.684Z,8.48
2023-05-16T07:19:58.539Z,7.32
2023-05-16T07:22:25.397Z,7.47
2023-05-16T07:24:54.322Z,6.40
2023-05-16T07:27:23.337Z,5.97
2023-05-16T07:29:50.718Z,9.95
2023-05-16T07:32:18.269Z,7.30
2023-05-16T07:34:45.090Z,6.45
2023-05-16T07:37:13.065Z,6.32
2023-05-16T07:39:40.309Z,5.30
2023-05-16T07:42:07.968Z,8.75
2023-05-16T07:44:35.124Z,7.00
2023-05-16T07:47:02.324Z,5.00
2023-05-16T07:49:31.706Z,7.50
2023-05-16T07:51:58.476Z,9.15
2023-05-16T07:54:25.371Z,7.55
2023-05-16T07:56:52.168Z,5.93
2023-05-16T07:59:19.034Z,5.30
2023-05-16T08:01:46.005Z,3.33
2023-05-16T08:04:12.748Z,5.65
2023-05-16T08:06:40.280Z,7.57
2023-05-16T08:09:07.061Z,7.78
2023-05-16T08:11:33.909Z,6.47
2023-05-16T08:14:00.725Z,9.10
2023-05-16T08:16:27.528Z,3.97
2023-05-16T08:18:54.366Z,7.30
2023-05-16T08:21:21.147Z,7.63
2023-05-16T08:23:47.949Z,5.78
2023-05-16T08:26:14.761Z,5.82
2023-05-16T08:28:41.619Z,5.93
2023-05-16T08:31:08.640Z,4.45
2023-05-16T08:33:35.817Z,4.68
2023-05-16T08:36:02.648Z,4.72
2023-05-16T08:38:29.423Z,6.45
2023-05-16T08:40:56.422Z,6.38
2023-05-16T08:43:23.861Z,5.20
2023-05-16T08:45:50.698Z,7.03
2023-05-16T08:48:22.862Z,4.88
2023-05-16T08:50:50.195Z,7.90
2023-05-16T08:53:27.853Z,4.15
2023-05-16T08:55:55.508Z,3.83
2023-05-16T08:58:22.436Z,4.03
2023-05-16T09:00:49.304Z,6.25
2023-05-16T09:03:17.330Z,5.35
2023-05-16T09:05:44.180Z,3.83
2023-05-16T09:08:11.402Z,6.82
2023-05-16T09:10:38.229Z,9.13
2023-05-16T09:13:05.015Z,6.25
2023-05-16T09:15:33.606Z,3.10
2023-05-16T09:18:04.937Z,7.05
2023-05-16T09:20:31.719Z,10.02
2023-05-16T09:23:00.247Z,4.35
2023-05-16T09:25:31.407Z,4.22
2023-05-16T09:28:01.421Z,3.63
2023-05-16T09:30:34.290Z,8.73
2023-05-16T09:33:01.902Z,6.05
2023-05-16T09:37:58.604Z,8.50
2023-05-16T09:40:25.549Z,8.10
2023-05-16T09:43:07.134Z,5.60
2023-05-16T09:45:36.258Z,4.03
2023-05-16T09:48:13.036Z,7.63
2023-05-16T09:50:40.610Z,6.70
2023-05-16T09:53:07.556Z,7.95
2023-05-16T09:55:34.844Z,6.85
2023-05-16T09:58:01.792Z,6.00
2023-05-16T10:00:33.310Z,4.15
2023-05-16T10:03:04.336Z,4.90
2023-05-16T10:05:33.102Z,6.25
2023-05-16T10:08:02.434Z,3.97
2023-05-16T10:10:29.996Z,6.10
2023-05-16T10:13:00.220Z,9.40
2023-05-16T10:15:29.515Z,5.15
2023-05-16T10:18:00.078Z,11.68
2023-05-16T10:22:56.768Z,5.72
2023-05-16T10:25:32.347Z,5.82
2023-05-16T10:27:59.709Z,4.47
2023-05-16T10:30:27.404Z,6.50
2023-05-16T10:32:54.903Z,4.47
2023-05-16T10:35:22.094Z,5.60
2023-05-16T10:37:50.644Z,10.73
2023-05-16T10:40:18.285Z,7.20
2023-05-16T10:42:55.912Z,8.25
2023-05-16T10:45:23.223Z,5.72
2023-05-16T10:47:57.590Z,7.18
2023-05-16T10:50:44.682Z,6.00
2023-05-16T10:53:20.754Z,3.53
2023-05-16T10:55:59.726Z,3.63
2023-05-16T10:58:42.365Z,5.43
2023-05-16T11:01:22.354Z,7.20
2023-05-16T11:04:04.522Z,7.60
2023-05-16T11:06:44.857Z,9.13
2023-05-16T11:09:11.784Z,4.68
2023-05-16T11:12:03.725Z,4.38
2023-05-16T11:14:37.645Z,5.10
2023-05-16T11:17:10.395Z,4.82
2023-05-16T11:19:45.098Z,4.75
2023-05-16T11:22:23.510Z,4.97
2023-05-16T11:25:01.752Z,5.53
2023-05-16T11:27:47.367Z,4.18
2023-05-16T11:30:17.604Z,4.47
2023-05-16T11:32:46.366Z,5.20
2023-05-16T11:35:18.226Z,2.53
2023-05-16T11:37:46.949Z,8.82
2023-05-16T11:40:15.700Z,5.43
2023-05-16T11:42:44.765Z,4.22
2023-05-16T11:45:24.362Z,7.78
2023-05-16T11:47:51.604Z,5.65
2023-05-16T11:50:20.819Z,4.13
2023-05-16T11:52:50.312Z,4.65
2023-05-16T11:55:28.059Z,6.83
2023-05-16T11:58:00.202Z,4.32
2023-05-16T12:00:27.619Z,6.32
2023-05-16T12:03:00.529Z,3.13
2023-05-16T12:05:29.185Z,4.75
2023-05-16T12:07:57.514Z,4.20
2023-05-16T12:10:24.301Z,3.83
2023-05-16T12:12:53.683Z,3.38
2023-05-16T12:15:21.597Z,8.30
2023-05-16T12:17:48.865Z,4.45
2023-05-16T12:20:16.630Z,6.03
2023-05-16T12:22:45.385Z,4.45
2023-05-16T12:25:22.907Z,10.13
2023-05-16T12:27:50.078Z,5.43
2023-05-16T12:30:18.740Z,5.30
2023-05-16T12:32:45.838Z,5.82
2023-05-16T12:35:13.294Z,6.65
2023-05-16T12:37:40.187Z,5.60
2023-05-16T12:40:10.850Z,6.90
2023-05-16T12:42:38.048Z,5.00
2023-05-16T12:45:05.341Z,5.13
2023-05-16T12:47:36.946Z,7.95
2023-05-16T12:50:08.952Z,7.65
2023-05-16T12:52:35.848Z,4.50
2023-05-16T12:55:02.836Z,7.40
2023-05-16T12:57:29.565Z,5.65
2023-05-16T12:59:56.316Z,7.32
2023-05-16T13:02:23.127Z,4.90
2023-05-16T13:04:49.965Z,6.78
2023-05-16T13:07:17.848Z,8.65
2023-05-16T13:09:44.677Z,9.00
2023-05-16T13:12:11.629Z,5.28
2023-05-16T13:14:38.664Z,6.63
2023-05-16T13:17:05.548Z,5.68
2023-05-16T13:19:32.642Z,6.32
2023-05-16T13:21:59.413Z,4.80
2023-05-16T13:24:26.152Z,6.05
2023-05-16T13:26:53.558Z,5.10
2023-05-16T13:29:20.416Z,10.50
2023-05-16T13:31:47.271Z,6.47
2023-05-16T13:34:14.046Z,5.63
2023-05-16T13:36:53.234Z,6.47
2023-05-16T13:39:22.198Z,6.07
2023-05-16T13:41:49.312Z,5.80
2023-05-16T13:44:16.734Z,4.38
2023-05-16T13:46:43.890Z,5.50
2023-05-16T13:49:10.676Z,10.02
2023-05-16T13:51:37.630Z,5.38
2023-05-16T13:54:04.439Z,8.48
2023-05-16T13:56:31.276Z,6.22
2023-05-16T13:59:03.916Z,6.40
2023-05-16T14:01:33.653Z,5.55
2023-05-16T14:04:00.596Z,8.98
2023-05-16T14:06:27.419Z,5.40
2023-05-16T14:08:54.371Z,5.63
2023-05-16T14:11:28.428Z,11.55
2023-05-16T14:13:56.426Z,3.80
2023-05-16T14:16:23.331Z,9.23
2023-05-16T14:18:50.256Z,7.30
2023-05-16T14:21:17.270Z,4.47
2023-05-16T14:23:44.365Z,6.63
2023-05-16T14:26:11.505Z,4.15
2023-05-16T14:28:38.348Z,6.05
2023-05-16T14:31:06.050Z,4.47
2023-05-16T14:33:33.355Z,5.43
2023-05-16T14:36:01.265Z,5.22
2023-05-16T14:38:28.219Z,7.07
2023-05-16T14:40:54.979Z,4.95
2023-05-16T14:43:21.772Z,5.70
2023-05-16T14:45:48.925Z,5.15
2023-05-16T14:48:17.001Z,8.07
2023-05-16T14:50:43.844Z,6.22
2023-05-16T14:53:10.662Z,6.63
2023-05-16T14:55:37.764Z,8.40
2023-05-16T14:58:05.857Z,6.97
2023-05-16T15:00:32.744Z,6.50
2023-05-16T15:02:59.566Z,5.07
2023-05-16T15:05:26.749Z,3.95
2023-05-16T15:07:53.645Z,6.50
2023-05-16T15:10:20.391Z,4.63
2023-05-16T15:12:49.438Z,4.55
2023-05-16T15:15:16.770Z,5.55
2023-05-16T15:17:43.720Z,6.00
2023-05-16T15:20:11.760Z,6.25
2023-05-16T15:22:41.649Z,3.92
2023-05-16T15:25:09.645Z,6.05
2023-05-16T15:27:36.581Z,3.85
2023-05-16T15:30:03.859Z,4.93
2023-05-16T15:32:31.154Z,6.65
2023-05-16T15:34:57.974Z,7.53
2023-05-16T15:37:24.766Z,7.28
2023-05-16T15:39:51.645Z,4.60
2023-05-16T15:42:20.108Z,4.28
2023-05-16T15:44:47.119Z,4.38
2023-05-16T15:47:14.004Z,5.05
2023-05-16T15:49:41.539Z,3.67
2023-05-16T15:52:08.956Z,5.05
2023-05-16T15:54:36.758Z,4.57
2023-05-16T15:57:03.793Z,7.68
2023-05-16T15:59:30.600Z,3.95
2023-05-16T16:01:57.555Z,3.92
2023-05-16T16:04:24.330Z,4.75
2023-05-16T16:06:51.077Z,5.32
2023-05-16T16:09:17.924Z,3.53
2023-05-16T16:11:44.764Z,4.25
2023-05-16T16:14:11.630Z,6.38
2023-05-16T16:16:40.519Z,3.78
2023-05-16T16:19:08.073Z,3.38
2023-05-16T16:21:35.940Z,4.88
2023-05-16T16:24:02.916Z,5.22
2023-05-16T16:26:29.817Z,6.35
2023-05-16T16:28:56.616Z,4.65
2023-05-16T16:31:23.550Z,5.57
2023-05-16T16:33:50.502Z,4.10
2023-05-16T16:36:18.103Z,5.35
2023-05-16T16:38:44.868Z,5.35
2023-05-16T16:41:12.685Z,6.32
2023-05-16T16:43:40.117Z,5.68
2023-05-16T16:46:07.926Z,3.40
2023-05-16T16:48:37.878Z,7.68
2023-05-16T16:51:04.811Z,7.25
2023-05-16T16:53:32.364Z,8.73
2023-05-16T16:55:59.177Z,4.68
2023-05-16T16:58:26.308Z,4.55
2023-05-16T17:00:53.141Z,6.68
2023-05-16T17:03:20.000Z,8.45
2023-05-16T17:05:46.849Z,8.15
2023-05-16T17:08:13.654Z,7.00
2023-05-16T17:10:40.864Z,6.38
2023-05-16T17:13:10.466Z,6.45
2023-05-16T17:15:38.054Z,9.40
2023-05-16T17:18:08.542Z,11.40
2023-05-16T17:20:35.965Z,8.07
2023-05-16T17:23:03.545Z,9.45
2023-05-16T17:25:30.570Z,6.38
2023-05-16T17:27:57.553Z,8.98
2023-05-16T17:30:24.380Z,8.75
2023-05-16T17:32:51.199Z,8.50
2023-05-16T17:35:18.278Z,6.18
2023-05-16T17:37:47.321Z,8.07
2023-05-16T17:40:17.012Z,8.38
2023-05-16T17:42:47.158Z,6.35
2023-05-16T17:45:15.550Z,6.05
2023-05-16T17:47:42.865Z,5.93
2023-05-16T17:50:10.778Z,5.75
2023-05-16T17:52:40.750Z,6.53
2023-05-16T17:55:09.326Z,6.15
2023-05-16T17:57:36.310Z,6.20
2023-05-16T18:00:05.609Z,6.75
2023-05-16T18:02:32.680Z,7.18
2023-05-16T18:04:59.635Z,6.45
2023-05-16T18:07:27.102Z,8.15
2023-05-16T18:09:54.387Z,5.63
2023-05-16T18:12:21.722Z,6.95
2023-05-16T18:14:48.550Z,7.40
2023-05-16T18:17:15.502Z,6.60
2023-05-16T18:19:42.391Z,9.93
2023-05-16T18:22:11.956Z,8.90
2023-05-16T18:24:40.027Z,8.27
2023-05-16T18:27:07.132Z,5.22
2023-05-16T18:29:34.407Z,4.57
2023-05-16T18:32:01.403Z,6.10
2023-05-16T18:34:28.427Z,8.40
2023-05-16T18:36:55.248Z,5.65
2023-05-16T18:39:22.059Z,9.93
2023-05-16T18:41:49.025Z,7.05
2023-05-16T18:44:17.276Z,5.70
2023-05-16T18:46:45.990Z,6.60
2023-05-16T18:49:13.860Z,6.60
2023-05-16T18:51:40.795Z,6.95
2023-05-16T18:54:07.682Z,6.28
2023-05-16T18:56:34.524Z,8.63
2023-05-16T18:59:01.357Z,9.95
2023-05-16T19:01:28.563Z,7.45
2023-05-16T19:06:22.545Z,6.95
2023-05-16T19:08:49.368Z,6.70
2023-05-16T19:11:17.401Z,7.13
2023-05-16T19:13:45.080Z,5.75
2023-05-16T19:16:11.857Z,6.45
2023-05-16T19:18:39.219Z,4.13
2023-05-16T19:21:07.948Z,6.28
2023-05-16T19:23:34.782Z,10.45
2023-05-16T19:26:01.735Z,6.53
2023-05-16T19:28:28.551Z,7.43
2023-05-16T19:30:55.420Z,10.15
2023-05-16T19:33:22.353Z,7.43
2023-05-16T19:35:51.464Z,7.03
2023-05-16T19:38:19.801Z,5.93
2023-05-16T19:40:47.018Z,12.10
2023-05-16T19:43:15.586Z,9.40
2023-05-16T19:45:42.611Z,7.82
2023-05-16T19:48:09.646Z,7.07
2023-05-16T19:50:36.704Z,5.93
2023-05-16T19:53:04.133Z,6.68
2023-05-16T19:55:31.370Z,10.27
2023-05-16T19:57:58.489Z,10.85
2023-05-16T20:00:25.513Z,7.03
2023-05-16T20:02:52.572Z,10.38
2023-05-16T20:05:22.735Z,6.82
2023-05-16T20:07:49.896Z,13.02
2023-05-16T20:10:17.626Z,10.95
2023-05-16T20:12:45.340Z,8.60
2023-05-16T20:15:12.554Z,7.28
2023-05-16T20:17:40.487Z,11.45
2023-05-16T20:20:08.846Z,6.75
2023-05-16T20:22:38.867Z,12.32
2023-05-16T20:25:06.827Z,15.18
2023-05-16T20:27:33.962Z,9.52
2023-05-16T20:30:01.217Z,8.38
2023-05-16T20:32:28.366Z,10.85
2023-05-16T20:34:55.430Z,14.05
2023-05-16T20:37:26.498Z,10.18
2023-05-16T20:39:54.198Z,7.53
2023-05-16T20:42:21.465Z,8.13
2023-05-16T20:44:48.503Z,10.25
2023-05-16T20:47:17.099Z,12.02
2023-05-16T20:49:44.323Z,8.10
2023-05-16T20:52:11.165Z,9.32
2023-05-16T20:54:38.081Z,6.75
2023-05-16T20:57:05.360Z,11.25
2023-05-16T20:59:32.326Z,8.75
2023-05-16T21:01:59.585Z,13.07
2023-05-16T21:04:26.590Z,11.07
2023-05-16T21:06:53.519Z,7.82
2023-05-16T21:09:20.427Z,11.75
2023-05-16T21:11:47.358Z,12.82
2023-05-16T21:14:14.158Z,10.75
2023-05-16T21:16:40.905Z,11.95
2023-05-16T21:19:07.804Z,12.00
2023-05-16T21:21:34.746Z,8.85
2023-05-16T21:24:01.547Z,16.73
2023-05-16T21:26:28.274Z,9.90
2023-05-16T21:28:56.060Z,11.65
2023-05-16T21:31:23.302Z,14.23
2023-05-16T21:33:53.235Z,13.65
2023-05-16T21:36:22.379Z,10.40
2023-05-16T21:38:49.169Z,10.25
2023-05-16T21:41:16.844Z,10.75
2023-05-16T21:43:43.588Z,9.73
2023-05-16T21:46:10.383Z,12.85
2023-05-16T21:48:38.370Z,11.00
2023-05-16T21:51:05.233Z,11.05
2023-05-16T21:53:31.993Z,11.32
2023-05-16T21:55:59.692Z,14.85
2023-05-16T21:58:26.452Z,11.30
2023-05-16T22:00:53.848Z,13.45
2023-05-16T22:03:21.405Z,12.98
2023-05-16T22:05:48.501Z,14.52
2023-05-16T22:08:15.561Z,9.73
2023-05-16T22:10:42.723Z,12.50
2023-05-16T22:13:09.886Z,12.43
2023-05-16T22:15:36.663Z,9.60
2023-05-16T22:18:03.577Z,11.38
2023-05-16T22:20:30.533Z,15.52
2023-05-16T22:22:57.421Z,13.05
2023-05-16T22:25:24.485Z,12.73
2023-05-16T22:27:51.312Z,13.40
2023-05-16T22:30:18.783Z,14.20
2023-05-16T22:32:47.040Z,13.32
2023-05-16T22:35:14.261Z,15.85
2023-05-16T22:37:41.048Z,12.35
2023-05-16T22:40:08.755Z,13.02
2023-05-16T22:42:35.580Z,17.60
2023-05-16T22:45:03.857Z,13.82
2023-05-16T22:47:30.804Z,10.30
2023-05-16T22:49:57.694Z,15.77
2023-05-16T22:52:24.509Z,14.93
2023-05-16T22:54:51.279Z,13.23
2023-05-16T22:57:18.083Z,18.45
2023-05-16T22:59:44.859Z,14.48
2023-05-16T23:02:11.580Z,18.00
2023-05-16T23:04:38.522Z,11.80
2023-05-16T23:07:05.553Z,12.00
2023-05-16T23:09:32.409Z,14.45
2023-05-16T23:11:59.260Z,13.90
2023-05-16T23:14:26.289Z,20.48
2023-05-16T23:16:53.232Z,16.70
2023-05-16T23:19:20.326Z,17.63
2023-05-16T23:21:47.172Z,14.60
2023-05-16T23:24:13.920Z,11.60
2023-05-16T23:26:41.718Z,13.90
2023-05-16T23:29:08.525Z,13.80
2023-05-16T23:31:35.356Z,14.27
2023-05-16T23:34:02.299Z,11.68
2023-05-16T23:36:29.087Z,12.70
2023-05-16T23:38:55.823Z,15.07
2023-05-16T23:41:22.606Z,14.55
2023-05-16T23:43:49.334Z,13.25
2023-05-16T23:46:16.105Z,14.00
2023-05-16T23:48:42.917Z,14.32
2023-05-16T23:51:09.849Z,15.68
2023-05-16T23:53:37.485Z,13.43
2023-05-16T23:56:04.450Z,17.77
2023-05-16T23:58:31.173Z,11.23
